Terminal Aerodrome Forecast
Issued by NWS

Current Version | Previous Version | Graphics & Text | Print | Product List | Glossary On
Versions: 1 2 3 4 5 6 7 8 9 10 11 12 13 14 15 16 17 18 19 20
000
FTUS41 KPBZ 300520
TAFHLG
TAF
KHLG 300520Z 3006/0106 35006KT P6SM OVC009
     FM301400 11005KT P6SM BKN015
     FM301600 11005KT P6SM BKN035
     FM302100 15005KT 5SM -RA OVC060
     FM010000 15005KT 2SM -RA BR OVC020=

USA.gov is the U.S. government's official web portal to all federal, state and local government web resources and services.